Time;durP1;ratioP1;P1;durP2;ratioP2;P2;SDS_P1;SDS_P2;PMS_P1;PMS_P2;Temp;Humidity;BMP_temperature;BMP_pressure;BME280_temperature;BME280_humidity;BME280_pressure;Samples;Min_cycle;Max_cycle;Signal;HPM_P1;HPM_P2
2023/03/21 00:00:55;;;;;;;;;;;10.70;99.90;;;;;;5053288;28;20373;-73
2023/03/21 00:03:21;;;;;;;;;;;10.70;99.90;;;;;;5053181;28;20402;-74
2023/03/21 00:05:50;;;;;;;;;;;10.70;99.90;;;;;;5054167;28;19916;-73
2023/03/21 00:08:16;;;;;;;;;;;10.70;99.90;;;;;;5056968;28;19948;-73
2023/03/21 00:10:42;;;;;;;;;;;10.70;99.90;;;;;;5057034;28;19916;-73
2023/03/21 00:13:07;;;;;;;;;;;10.70;99.90;;;;;;5056884;28;19919;-73
2023/03/21 00:15:33;;;;;;;;;;;10.70;99.90;;;;;;5056847;28;19913;-73
2023/03/21 00:18:02;;;;;;;;;;;10.70;99.90;;;;;;5056807;28;19909;-76
2023/03/21 00:20:29;;;;;;;;;;;10.70;99.90;;;;;;5057057;28;19916;-74
2023/03/21 00:22:55;;;;;;;;;;;10.70;99.90;;;;;;5056774;28;19909;-73
2023/03/21 00:25:20;;;;;;;;;;;10.80;99.90;;;;;;5056726;28;19908;-74
2023/03/21 00:27:46;;;;;;;;;;;10.80;99.90;;;;;;5056615;28;19935;-73
2023/03/21 00:30:12;;;;;;;;;;;10.70;99.90;;;;;;5056658;28;19916;-74
2023/03/21 00:32:37;;;;;;;;;;;10.70;99.90;;;;;;5056510;28;19912;-76
2023/03/21 00:35:03;;;;;;;;;;;10.70;99.90;;;;;;5056481;28;20377;-73
2023/03/21 00:37:28;;;;;;;;;;;10.70;99.90;;;;;;5056887;28;19916;-74
2023/03/21 00:39:54;;;;;;;;;;;10.70;99.90;;;;;;5056345;28;20270;-74
2023/03/21 00:42:20;;;;;;;;;;;10.80;99.90;;;;;;5056334;28;19946;-75
2023/03/21 00:44:45;;;;;;;;;;;10.80;99.90;;;;;;5056863;28;19909;-75
2023/03/21 00:47:11;;;;;;;;;;;10.80;99.90;;;;;;5071604;28;19908;-73
2023/03/21 00:49:37;;;;;;;;;;;10.80;99.90;;;;;;5056634;28;20285;-73
2023/03/21 00:52:07;;;;;;;;;;;10.80;99.90;;;;;;5056392;28;19909;-73
2023/03/21 00:54:33;;;;;;;;;;;10.70;99.90;;;;;;5071579;28;20423;-73
2023/03/21 00:57:00;;;;;;;;;;;10.70;99.90;;;;;;5056036;28;19908;-74
2023/03/21 00:59:25;;;;;;;;;;;10.70;99.90;;;;;;5056823;28;19909;-75
2023/03/21 01:01:52;;;;;;;;;;;10.80;99.90;;;;;;5056326;28;19999;-74
2023/03/21 01:04:17;;;;;;;;;;;10.80;99.90;;;;;;5056183;28;19951;-74
2023/03/21 01:06:43;;;;;;;;;;;10.80;99.90;;;;;;5055945;28;20471;-74
2023/03/21 01:09:17;;;;;;;;;;;10.70;99.90;;;;;;5055849;28;19995;-74
2023/03/21 01:11:43;;;;;;;;;;;10.70;99.90;;;;;;5056181;28;19915;-75
2023/03/21 01:14:09;;;;;;;;;;;10.60;99.90;;;;;;5055813;28;19920;-75
2023/03/21 01:16:35;;;;;;;;;;;10.60;99.90;;;;;;5055699;28;19912;-74
2023/03/21 01:19:01;;;;;;;;;;;10.60;99.90;;;;;;5054822;28;19958;-73
2023/03/21 01:21:26;;;;;;;;;;;10.60;99.90;;;;;;5055621;28;19909;-74
2023/03/21 01:23:52;;;;;;;;;;;10.60;99.90;;;;;;5055558;28;20266;-73
2023/03/21 01:26:18;;;;;;;;;;;10.60;99.90;;;;;;5055499;28;19916;-75
2023/03/21 01:28:44;;;;;;;;;;;10.60;99.90;;;;;;5055560;28;19913;-74
2023/03/21 01:31:13;;;;;;;;;;;10.50;99.90;;;;;;5055449;28;19967;-72
2023/03/21 01:33:39;;;;;;;;;;;10.50;99.90;;;;;;5055356;28;19913;-73
2023/03/21 01:36:05;;;;;;;;;;;10.60;99.90;;;;;;5055401;28;19996;-73
2023/03/21 01:38:31;;;;;;;;;;;10.60;99.90;;;;;;5055253;28;19956;-74
2023/03/21 01:40:58;;;;;;;;;;;10.50;99.90;;;;;;5054886;28;20356;-73
2023/03/21 01:43:26;;;;;;;;;;;10.60;99.90;;;;;;5055308;28;19996;-75
2023/03/21 01:46:06;;;;;;;;;;;10.60;99.90;;;;;;5055194;28;19951;-75
2023/03/21 01:48:32;;;;;;;;;;;10.60;99.90;;;;;;5055084;28;19963;-75
2023/03/21 01:50:59;;;;;;;;;;;10.60;99.90;;;;;;5055077;28;19909;-73
2023/03/21 01:53:29;;;;;;;;;;;10.60;99.90;;;;;;5055096;28;19913;-74
2023/03/21 01:56:00;;;;;;;;;;;10.70;99.90;;;;;;5055058;28;19913;-74
2023/03/21 01:58:26;;;;;;;;;;;10.70;99.90;;;;;;5054860;28;20444;-75
2023/03/21 02:00:54;;;;;;;;;;;10.70;99.90;;;;;;5054772;28;19962;-74
2023/03/21 02:03:19;;;;;;;;;;;10.70;99.90;;;;;;5054360;28;19954;-73
2023/03/21 02:05:55;;;;;;;;;;;10.70;99.90;;;;;;5055006;28;19912;-74
2023/03/21 02:08:22;;;;;;;;;;;10.70;99.90;;;;;;5055071;28;19952;-75
2023/03/21 02:10:48;;;;;;;;;;;10.70;99.90;;;;;;5054870;28;19991;-74
2023/03/21 02:13:14;;;;;;;;;;;10.70;99.90;;;;;;5054668;28;19938;-74
2023/03/21 02:15:41;;;;;;;;;;;10.80;99.90;;;;;;5054583;28;19909;-73
2023/03/21 02:18:06;;;;;;;;;;;10.80;99.90;;;;;;5054556;28;19915;-73
2023/03/21 02:20:51;;;;;;;;;;;10.80;99.90;;;;;;5054609;28;20301;-74
2023/03/21 02:23:23;;;;;;;;;;;10.80;99.90;;;;;;5054579;28;19916;-74
2023/03/21 02:26:17;;;;;;;;;;;10.80;99.90;;;;;;5054665;28;19930;-74
2023/03/21 02:28:50;;;;;;;;;;;10.80;99.90;;;;;;5036500;28;20289;-74
2023/03/21 02:31:25;;;;;;;;;;;10.90;99.90;;;;;;5054435;28;19909;-73
2023/03/21 02:34:09;;;;;;;;;;;10.90;99.90;;;;;;5054611;28;19964;-73
2023/03/21 02:37:01;;;;;;;;;;;10.90;99.90;;;;;;5054182;28;19913;-73
2023/03/21 02:39:26;;;;;;;;;;;11.00;99.90;;;;;;5049816;28;20001;-74
2023/03/21 02:41:52;;;;;;;;;;;11.00;99.90;;;;;;5054071;28;19951;-74
2023/03/21 02:44:33;;;;;;;;;;;11.00;99.90;;;;;;5054040;28;19909;-74
2023/03/21 02:46:58;;;;;;;;;;;11.00;99.90;;;;;;5053995;28;20370;-73
2023/03/21 02:49:24;;;;;;;;;;;10.90;99.90;;;;;;5053971;28;19999;-74
2023/03/21 02:51:49;;;;;;;;;;;10.70;99.90;;;;;;5053969;28;20284;-75
2023/03/21 02:54:16;;;;;;;;;;;10.40;1.00;;;;;;5053840;28;19959;-75
2023/03/21 02:56:43;;;;;;;;;;;10.30;1.00;;;;;;5053792;28;19916;-74
2023/03/21 02:59:09;;;;;;;;;;;10.30;1.00;;;;;;5053881;28;19908;-75
2023/03/21 03:01:34;;;;;;;;;;;10.20;1.00;;;;;;5053824;28;20292;-76
2023/03/21 03:04:00;;;;;;;;;;;10.10;18.60;;;;;;5069202;28;19908;-75
2023/03/21 03:06:55;;;;;;;;;;;10.10;99.90;;;;;;5069201;28;20459;-75
2023/03/21 03:09:21;;;;;;;;;;;10.20;99.90;;;;;;5036347;28;20269;-76
2023/03/21 03:11:50;;;;;;;;;;;10.20;99.90;;;;;;5053836;28;20265;-77
2023/03/21 03:14:41;;;;;;;;;;;10.20;99.90;;;;;;5053572;28;20277;-75
2023/03/21 03:17:10;;;;;;;;;;;10.20;99.90;;;;;;5053679;28;20262;-74
2023/03/21 03:19:43;;;;;;;;;;;10.30;99.90;;;;;;5053570;28;19932;-75
2023/03/21 03:22:12;;;;;;;;;;;10.30;99.90;;;;;;5053724;28;19978;-76
2023/03/21 03:24:58;;;;;;;;;;;10.40;99.90;;;;;;5053659;28;19909;-76
2023/03/21 03:27:25;;;;;;;;;;;10.50;99.90;;;;;;5053028;28;19909;-74
2023/03/21 03:29:52;;;;;;;;;;;10.60;99.90;;;;;;5053499;28;19916;-75
2023/03/21 03:32:20;;;;;;;;;;;10.50;99.90;;;;;;5053485;28;19913;-76
2023/03/21 03:34:49;;;;;;;;;;;10.60;99.90;;;;;;5053668;28;19913;-76
2023/03/21 03:37:16;;;;;;;;;;;10.60;99.90;;;;;;5053734;28;19912;-75
2023/03/21 03:39:47;;;;;;;;;;;10.50;99.90;;;;;;5053326;28;19921;-75
2023/03/21 03:42:15;;;;;;;;;;;10.60;99.90;;;;;;5056489;28;19909;-76
2023/03/21 03:44:40;;;;;;;;;;;10.50;99.90;;;;;;5057647;28;20459;-75
2023/03/21 03:47:18;;;;;;;;;;;10.60;99.90;;;;;;5057380;28;19921;-75
2023/03/21 03:49:54;;;;;;;;;;;10.60;99.90;;;;;;5057430;28;19951;-76
2023/03/21 03:52:21;;;;;;;;;;;10.60;99.90;;;;;;5057300;28;19917;-75
2023/03/21 03:54:48;;;;;;;;;;;10.50;99.90;;;;;;5057397;28;20427;-76
2023/03/21 03:57:14;;;;;;;;;;;10.50;99.90;;;;;;5057360;28;20415;-76
2023/03/21 03:59:41;;;;;;;;;;;10.50;99.90;;;;;;5057251;28;19962;-75
2023/03/21 04:02:07;;;;;;;;;;;10.60;99.90;;;;;;5057120;28;19932;-75
2023/03/21 04:04:33;;;;;;;;;;;10.60;99.90;;;;;;5057417;28;20286;-75
2023/03/21 04:06:59;;;;;;;;;;;10.50;99.90;;;;;;5057052;28;19909;-76
2023/03/21 04:09:27;;;;;;;;;;;10.60;99.90;;;;;;5057127;28;19916;-75
2023/03/21 04:11:53;;;;;;;;;;;10.70;99.90;;;;;;5056925;28;19940;-74
2023/03/21 04:14:19;;;;;;;;;;;10.70;99.90;;;;;;5057130;28;20009;-75
2023/03/21 04:16:44;;;;;;;;;;;10.70;99.90;;;;;;5056811;28;19919;-75
2023/03/21 04:19:10;;;;;;;;;;;10.70;99.90;;;;;;5056898;28;19916;-75
2023/03/21 04:21:36;;;;;;;;;;;10.80;99.90;;;;;;5056746;28;19915;-74
2023/03/21 04:24:01;;;;;;;;;;;10.80;99.90;;;;;;5056734;28;19909;-75
2023/03/21 04:26:32;;;;;;;;;;;10.80;99.90;;;;;;5056668;28;19917;-76
2023/03/21 04:29:01;;;;;;;;;;;10.80;99.90;;;;;;5071676;28;19913;-75
2023/03/21 04:31:29;;;;;;;;;;;10.80;99.90;;;;;;5056579;28;19908;-76
2023/03/21 04:33:56;;;;;;;;;;;10.80;99.90;;;;;;5056614;28;19913;-75
2023/03/21 04:36:27;;;;;;;;;;;10.80;99.90;;;;;;5056546;28;19955;-76
2023/03/21 04:38:53;;;;;;;;;;;10.80;99.90;;;;;;5056197;28;19913;-76
2023/03/21 04:41:19;;;;;;;;;;;10.80;99.90;;;;;;5056874;28;19917;-75
2023/03/21 04:43:46;;;;;;;;;;;10.80;99.90;;;;;;5056130;28;19913;-75
2023/03/21 04:46:11;;;;;;;;;;;10.80;99.90;;;;;;5056295;28;19916;-75
2023/03/21 04:48:37;;;;;;;;;;;10.80;1.00;;;;;;5056332;28;19909;-75
2023/03/21 04:51:02;;;;;;;;;;;10.90;1.00;;;;;;5056040;28;19931;-75
2023/03/21 04:53:28;;;;;;;;;;;10.90;99.90;;;;;;5056271;28;20022;-74
2023/03/21 04:55:54;;;;;;;;;;;10.90;1.00;;;;;;5056290;28;20407;-75
2023/03/21 04:58:19;;;;;;;;;;;10.90;99.90;;;;;;5056066;28;19912;-75
2023/03/21 05:00:45;;;;;;;;;;;10.90;99.90;;;;;;5056086;28;19916;-75
2023/03/21 05:03:18;;;;;;;;;;;11.00;99.90;;;;;;5055934;28;19951;-74
2023/03/21 05:05:44;;;;;;;;;;;11.00;99.90;;;;;;5071106;28;19916;-76
2023/03/21 05:08:09;;;;;;;;;;;11.00;99.90;;;;;;5056016;28;20286;-76
2023/03/21 05:10:35;;;;;;;;;;;11.00;99.90;;;;;;5055870;28;19909;-75
2023/03/21 05:13:01;;;;;;;;;;;11.00;99.90;;;;;;5055702;28;19913;-76
2023/03/21 05:15:26;;;;;;;;;;;11.00;99.90;;;;;;5055821;28;20352;-75
2023/03/21 05:17:52;;;;;;;;;;;11.00;1.00;;;;;;5055682;28;19912;-74
2023/03/21 05:20:18;;;;;;;;;;;11.00;1.00;;;;;;5055716;28;20285;-75
2023/03/21 05:22:44;;;;;;;;;;;10.90;1.00;;;;;;5055610;28;19963;-77
2023/03/21 05:25:11;;;;;;;;;;;11.00;1.00;;;;;;5055780;28;19908;-75
2023/03/21 05:27:36;;;;;;;;;;;10.90;1.00;;;;;;5055779;28;19916;-76
2023/03/21 05:30:09;;;;;;;;;;;10.90;1.00;;;;;;5055529;28;19909;-75
2023/03/21 05:32:35;;;;;;;;;;;11.00;1.00;;;;;;5070704;28;19920;-75
2023/03/21 05:35:01;;;;;;;;;;;11.00;1.00;;;;;;5055422;28;19909;-75
2023/03/21 05:37:26;;;;;;;;;;;11.00;1.00;;;;;;5070739;28;19916;-77
2023/03/21 05:39:52;;;;;;;;;;;11.10;1.00;;;;;;5055159;28;19927;-75
2023/03/21 05:42:18;;;;;;;;;;;11.10;2.90;;;;;;5055343;28;20274;-76
2023/03/21 05:44:44;;;;;;;;;;;11.10;2.70;;;;;;5055260;28;19912;-76
2023/03/21 05:47:14;;;;;;;;;;;11.20;15.50;;;;;;5055173;28;19935;-75
2023/03/21 05:49:39;;;;;;;;;;;11.10;65.10;;;;;;5070475;28;19909;-76
2023/03/21 05:52:05;;;;;;;;;;;11.20;99.90;;;;;;5055201;28;20331;-77
2023/03/21 05:54:31;;;;;;;;;;;11.20;99.90;;;;;;5070375;28;19909;-75
2023/03/21 05:56:56;;;;;;;;;;;11.20;99.90;;;;;;5055283;28;19916;-76
2023/03/21 05:59:22;;;;;;;;;;;11.10;99.90;;;;;;5054829;28;19916;-75
2023/03/21 06:01:47;;;;;;;;;;;11.10;99.90;;;;;;5055062;28;19958;-75
2023/03/21 06:04:13;;;;;;;;;;;11.20;99.90;;;;;;5053978;28;20370;-74
2023/03/21 06:06:39;;;;;;;;;;;11.10;99.90;;;;;;5054780;28;20051;-76
2023/03/21 06:09:05;;;;;;;;;;;11.20;99.90;;;;;;5054948;28;20000;-75
2023/03/21 06:11:33;;;;;;;;;;;11.20;99.90;;;;;;5070078;28;19909;-76
2023/03/21 06:13:59;;;;;;;;;;;11.20;99.90;;;;;;5054537;28;19912;-75
2023/03/21 06:16:24;;;;;;;;;;;11.10;99.90;;;;;;5054611;28;19920;-74
2023/03/21 06:18:50;;;;;;;;;;;11.10;99.90;;;;;;5054961;28;19909;-77
2023/03/21 06:21:16;;;;;;;;;;;11.20;99.90;;;;;;5054649;28;19909;-76
2023/03/21 06:23:41;;;;;;;;;;;11.20;99.90;;;;;;5054437;28;19944;-76
2023/03/21 06:26:07;;;;;;;;;;;11.30;99.90;;;;;;5054379;28;19952;-75
2023/03/21 06:28:32;;;;;;;;;;;11.30;99.90;;;;;;5054516;28;19913;-75
2023/03/21 06:30:58;;;;;;;;;;;11.40;99.90;;;;;;5054338;28;20373;-74
2023/03/21 06:33:24;;;;;;;;;;;11.40;99.90;;;;;;5054525;28;20011;-76
2023/03/21 06:35:51;;;;;;;;;;;11.50;99.90;;;;;;5054390;28;20331;-75
2023/03/21 06:38:16;;;;;;;;;;;11.50;99.90;;;;;;5054171;28;19944;-77
2023/03/21 06:40:44;;;;;;;;;;;11.60;99.90;;;;;;5069075;28;20431;-75
2023/03/21 06:43:09;;;;;;;;;;;11.60;99.90;;;;;;5052802;28;19909;-75
2023/03/21 06:45:35;;;;;;;;;;;11.70;99.90;;;;;;5054057;28;19909;-74
2023/03/21 06:48:00;;;;;;;;;;;11.70;99.90;;;;;;5053998;28;19908;-75
2023/03/21 06:50:26;;;;;;;;;;;11.70;84.30;;;;;;5053978;28;20265;-76
2023/03/21 06:52:51;;;;;;;;;;;11.70;52.90;;;;;;5053805;28;19913;-76
2023/03/21 06:55:21;;;;;;;;;;;11.80;4.60;;;;;;5054017;28;19908;-75
2023/03/21 06:57:47;;;;;;;;;;;11.80;1.00;;;;;;5053967;28;20357;-75
2023/03/21 07:00:13;;;;;;;;;;;11.90;1.00;;;;;;5053830;28;19915;-75
2023/03/21 07:02:38;;;;;;;;;;;11.90;1.00;;;;;;5053826;28;20403;-76
2023/03/21 07:05:04;;;;;;;;;;;12.00;1.00;;;;;;5053756;28;20376;-76
2023/03/21 07:07:30;;;;;;;;;;;12.00;1.00;;;;;;5053847;28;19916;-75
2023/03/21 07:09:55;;;;;;;;;;;12.00;99.90;;;;;;5053678;28;19909;-74
2023/03/21 07:12:21;;;;;;;;;;;12.10;99.90;;;;;;5053800;28;19952;-75
2023/03/21 07:14:47;;;;;;;;;;;12.10;99.90;;;;;;5053614;28;19909;-76
2023/03/21 07:17:12;;;;;;;;;;;12.30;99.90;;;;;;5053938;28;20284;-75
2023/03/21 07:19:38;;;;;;;;;;;12.30;99.90;;;;;;5053750;28;19909;-75
2023/03/21 07:22:04;;;;;;;;;;;12.40;99.90;;;;;;5053526;28;19912;-75
2023/03/21 07:24:29;;;;;;;;;;;12.40;99.90;;;;;;5068916;28;19909;-75
2023/03/21 07:26:55;;;;;;;;;;;12.60;99.90;;;;;;5053947;28;19909;-76
2023/03/21 07:29:22;;;;;;;;;;;12.70;99.90;;;;;;5053525;28;19995;-76
2023/03/21 07:31:48;;;;;;;;;;;12.60;99.90;;;;;;5068840;28;20403;-76
2023/03/21 07:34:15;;;;;;;;;;;12.70;99.90;;;;;;5053431;28;20401;-75
2023/03/21 07:36:41;;;;;;;;;;;12.70;92.50;;;;;;5053464;28;20408;-74
2023/03/21 07:39:07;;;;;;;;;;;12.80;96.70;;;;;;5053239;28;19987;-76
2023/03/21 07:41:32;;;;;;;;;;;12.80;83.20;;;;;;5068918;28;19913;-77
2023/03/21 07:43:58;;;;;;;;;;;12.80;20.80;;;;;;5053369;28;19959;-77
2023/03/21 07:46:23;;;;;;;;;;;12.90;1.00;;;;;;5053287;28;19915;-74
2023/03/21 07:48:49;;;;;;;;;;;13.10;1.00;;;;;;5053522;28;20464;-75
2023/03/21 07:51:15;;;;;;;;;;;13.30;1.00;;;;;;5053429;28;20377;-76
2023/03/21 07:53:41;;;;;;;;;;;13.20;1.00;;;;;;5053240;28;20011;-74
2023/03/21 07:56:08;;;;;;;;;;;;;;;;;;5053227;28;20300;-74
2023/03/21 07:58:33;;;;;;;;;;;13.60;1.00;;;;;;5053053;28;19909;-75
2023/03/21 08:01:02;;;;;;;;;;;;;;;;;;5052963;28;19915;-77
2023/03/21 08:03:30;;;;;;;;;;;;;;;;;;5051904;28;19913;-76
2023/03/21 08:05:57;;;;;;;;;;;;;;;;;;5053171;28;19909;-73
2023/03/21 08:08:24;;;;;;;;;;;;;;;;;;5053148;28;19909;-75
2023/03/21 08:10:49;;;;;;;;;;;13.80;99.90;;;;;;5052881;28;20336;-75
2023/03/21 08:13:15;;;;;;;;;;;;;;;;;;5068377;28;19913;-74
2023/03/21 08:15:41;;;;;;;;;;;14.20;99.90;;;;;;5053111;28;19947;-75
2023/03/21 08:18:07;;;;;;;;;;;14.30;99.90;;;;;;5052837;28;19908;-74
2023/03/21 08:20:33;;;;;;;;;;;14.20;99.90;;;;;;5053041;28;19995;-76
2023/03/21 08:22:58;;;;;;;;;;;14.00;99.90;;;;;;5053137;28;19909;-73
2023/03/21 08:25:25;;;;;;;;;;;;;;;;;;5053552;28;20273;-75
2023/03/21 08:27:52;;;;;;;;;;;;;;;;;;5055232;28;19909;-74
2023/03/21 08:30:19;;;;;;;;;;;;;;;;;;5057007;28;19948;-75
2023/03/21 08:32:45;;;;;;;;;;;;;;;;;;5056507;28;19912;-74
2023/03/21 08:35:12;;;;;;;;;;;;;;;;;;5056703;28;19909;-75
2023/03/21 08:37:39;;;;;;;;;;;;;;;;;;5056497;28;19912;-74
2023/03/21 08:40:07;;;;;;;;;;;14.60;99.90;;;;;;5056252;28;19920;-75
2023/03/21 08:42:34;;;;;;;;;;;;;;;;;;5071779;28;19947;-75
2023/03/21 08:45:00;;;;;;;;;;;14.80;99.90;;;;;;5056310;28;19949;-75
2023/03/21 08:47:27;;;;;;;;;;;14.90;99.90;;;;;;5055771;28;20205;-75
2023/03/21 08:49:54;;;;;;;;;;;;;;;;;;5056281;28;20323;-75
2023/03/21 08:52:21;;;;;;;;;;;;;;;;;;5056044;28;19935;-76
2023/03/21 08:54:48;;;;;;;;;;;;;;;;;;5056101;28;19909;-77
2023/03/21 08:57:15;;;;;;;;;;;;;;;;;;5056132;28;20281;-75
2023/03/21 08:59:42;;;;;;;;;;;;;;;;;;5056159;28;19916;-76
2023/03/21 09:02:07;;;;;;;;;;;;;;;;;;5056079;28;19909;-77
2023/03/21 09:04:33;;;;;;;;;;;;;;;;;;5055999;28;20288;-76
2023/03/21 09:07:02;;;;;;;;;;;;;;;;;;5056347;28;20396;-76
2023/03/21 09:09:29;;;;;;;;;;;;;;;;;;5055864;28;19966;-76
2023/03/21 09:11:56;;;;;;;;;;;;;;;;;;5055860;28;19909;-75
2023/03/21 09:14:23;;;;;;;;;;;;;;;;;;5055762;28;19920;-75
2023/03/21 09:16:51;;;;;;;;;;;;;;;;;;5054448;28;19908;-76
2023/03/21 09:19:17;;;;;;;;;;;;;;;;;;5056023;28;19909;-77
2023/03/21 09:21:43;;;;;;;;;;;;;;;;;;5056031;28;20425;-76
2023/03/21 09:24:11;;;;;;;;;;;;;;;;;;5055669;28;19909;-76
2023/03/21 09:26:37;;;;;;;;;;;;;;;;;;5055710;28;20369;-75
2023/03/21 09:29:04;;;;;;;;;;;;;;;;;;5055817;28;19909;-76
2023/03/21 09:31:31;;;;;;;;;;;;;;;;;;5055389;28;19909;-76
2023/03/21 09:33:58;;;;;;;;;;;;;;;;;;5055358;28;19916;-75
2023/03/21 09:36:26;;;;;;;;;;;21.30;99.90;;;;;;5055593;28;19913;-77
2023/03/21 09:38:52;;;;;;;;;;;21.60;99.90;;;;;;5054474;28;19916;-76
2023/03/21 09:41:26;;;;;;;;;;;22.00;99.90;;;;;;5055913;28;20305;-77
2023/03/21 09:43:52;;;;;;;;;;;22.50;99.90;;;;;;5055856;28;19913;-76
2023/03/21 09:46:24;;;;;;;;;;;21.50;99.90;;;;;;5053903;28;19915;-75
2023/03/21 09:49:00;;;;;;;;;;;20.80;99.90;;;;;;5055321;28;19913;-76
2023/03/21 09:51:31;;;;;;;;;;;20.40;99.90;;;;;;5055668;28;20273;-76
2023/03/21 09:54:02;;;;;;;;;;;20.20;99.90;;;;;;5053704;28;19920;-76
2023/03/21 09:56:29;;;;;;;;;;;20.30;99.90;;;;;;5055109;28;19909;-76
2023/03/21 09:58:58;;;;;;;;;;;20.10;99.90;;;;;;5053861;28;19913;-78
2023/03/21 10:01:33;;;;;;;;;;;21.20;99.90;;;;;;5054919;28;19915;-75
2023/03/21 10:04:04;;;;;;;;;;;23.00;93.90;;;;;;5055093;28;20344;-76
2023/03/21 10:06:30;;;;;;;;;;;24.10;91.50;;;;;;5055007;28;20300;-76
2023/03/21 10:09:00;;;;;;;;;;;26.90;86.70;;;;;;5054832;28;19909;-76
2023/03/21 10:11:28;;;;;;;;;;;27.60;79.70;;;;;;5054740;28;19978;-76
2023/03/21 10:13:55;;;;;;;;;;;26.90;77.80;;;;;;5054833;28;19913;-76
2023/03/21 10:16:27;;;;;;;;;;;27.20;74.10;;;;;;5054604;28;19915;-77
2023/03/21 10:18:54;;;;;;;;;;;29.20;69.30;;;;;;5054745;28;19916;-76
2023/03/21 10:21:26;;;;;;;;;;;30.20;68.90;;;;;;5054520;28;19916;-77
2023/03/21 10:23:53;;;;;;;;;;;31.70;68.50;;;;;;5054500;28;19908;-74
2023/03/21 10:26:20;;;;;;;;;;;32.30;67.20;;;;;;5054695;28;20408;-76
2023/03/21 10:28:47;;;;;;;;;;;31.10;66.50;;;;;;5054413;28;19909;-75
2023/03/21 10:31:15;;;;;;;;;;;28.70;66.40;;;;;;5054387;28;20427;-73
2023/03/21 10:33:45;;;;;;;;;;;28.50;70.00;;;;;;5054092;28;19959;-73
2023/03/21 10:36:24;;;;;;;;;;;29.30;63.20;;;;;;5054280;28;20358;-74
2023/03/21 10:38:55;;;;;;;;;;;31.10;62.60;;;;;;5054459;28;20034;-75
2023/03/21 10:41:21;;;;;;;;;;;31.80;61.50;;;;;;5054370;28;20369;-75
2023/03/21 10:44:02;;;;;;;;;;;32.30;60.50;;;;;;5054095;28;20392;-74
2023/03/21 10:46:27;;;;;;;;;;;31.80;60.60;;;;;;5054343;28;19913;-74
2023/03/21 10:48:53;;;;;;;;;;;32.70;60.40;;;;;;5054350;28;19963;-75
2023/03/21 10:51:20;;;;;;;;;;;31.90;63.60;;;;;;5054278;28;19912;-76
2023/03/21 10:53:57;;;;;;;;;;;32.10;62.90;;;;;;5054159;28;19916;-74
2023/03/21 10:56:26;;;;;;;;;;;29.00;63.50;;;;;;5053930;28;19909;-73
2023/03/21 10:58:53;;;;;;;;;;;31.10;61.20;;;;;;5053887;28;20366;-75
2023/03/21 11:01:29;;;;;;;;;;;31.90;62.30;;;;;;5054046;28;19999;-75
2023/03/21 11:03:56;;;;;;;;;;;30.60;62.50;;;;;;5054130;28;19913;-74
2023/03/21 11:06:27;;;;;;;;;;;30.90;65.10;;;;;;5053818;28;19940;-74
2023/03/21 11:08:54;;;;;;;;;;;31.30;62.60;;;;;;5053818;28;20289;-75
2023/03/21 11:11:23;;;;;;;;;;;31.60;66.50;;;;;;5069230;28;19909;-75
2023/03/21 11:13:55;;;;;;;;;;;31.20;65.60;;;;;;5053639;28;20003;-75
2023/03/21 11:16:26;;;;;;;;;;;31.80;69.90;;;;;;5068804;28;19909;-75
2023/03/21 11:18:55;;;;;;;;;;;31.20;71.40;;;;;;5053771;28;19955;-75
2023/03/21 11:21:26;;;;;;;;;;;;;;;;;;5053653;28;19909;-75
2023/03/21 11:23:52;;;;;;;;;;;;;;;;;;5053531;28;19998;-75
2023/03/21 11:26:22;;;;;;;;;;;;;;;;;;5053529;28;19909;-74
2023/03/21 11:28:50;;;;;;;;;;;;;;;;;;5053577;28;19974;-75
2023/03/21 11:31:16;;;;;;;;;;;;;;;;;;5053473;28;20412;-74
2023/03/21 11:33:44;;;;;;;;;;;;;;;;;;5053494;28;19948;-75
2023/03/21 11:36:10;;;;;;;;;;;;;;;;;;5053411;28;19909;-74
2023/03/21 11:38:37;;;;;;;;;;;25.50;72.10;;;;;;5053516;28;19909;-74
2023/03/21 11:41:03;;;;;;;;;;;26.20;75.90;;;;;;5053076;28;19923;-73
2023/03/21 11:43:30;;;;;;;;;;;;;;;;;;5053379;28;19962;-76
2023/03/21 11:45:57;;;;;;;;;;;;;;;;;;5053820;28;20393;-74
2023/03/21 11:48:23;;;;;;;;;;;;;;;;;;5051888;28;19915;-75
2023/03/21 11:50:49;;;;;;;;;;;;;;;;;;5051971;28;19916;-75
2023/03/21 11:53:16;;;;;;;;;;;;;;;;;;5052231;28;19913;-74
2023/03/21 11:55:42;;;;;;;;;;;;;;;;;;5051985;28;19909;-74
2023/03/21 11:58:08;;;;;;;;;;;;;;;;;;5051890;28;19935;-73
2023/03/21 12:00:35;;;;;;;;;;;;;;;;;;5051764;28;19909;-76
2023/03/21 12:03:01;;;;;;;;;;;;;;;;;;5055040;28;19913;-74
2023/03/21 12:05:28;;;;;;;;;;;;;;;;;;5057076;28;19919;-76
2023/03/21 12:07:54;;;;;;;;;;;;;;;;;;5057432;28;19909;-75
2023/03/21 12:10:20;;;;;;;;;;;;;;;;;;5057321;28;19915;-74
2023/03/21 12:12:46;;;;;;;;;;;;;;;;;;5057026;28;19987;-74
2023/03/21 12:15:12;;;;;;;;;;;;;;;;;;5056942;28;20383;-74
2023/03/21 12:17:38;;;;;;;;;;;;;;;;;;5057182;28;19913;-76
2023/03/21 12:20:09;;;;;;;;;;;;;;;;;;5055589;28;20266;-76
2023/03/21 12:22:35;;;;;;;;;;;;;;;;;;5056841;28;19916;-75
2023/03/21 12:25:01;;;;;;;;;;;;;;;;;;5056854;28;19913;-76
2023/03/21 12:27:27;;;;;;;;;;;;;;;;;;5056763;28;19955;-75
2023/03/21 12:29:53;;;;;;;;;;;;;;;;;;5056739;28;19915;-76
2023/03/21 12:32:20;;;;;;;;;;;;;;;;;;5056652;28;19909;-77
2023/03/21 12:34:46;;;;;;;;;;;;;;;;;;5056598;28;19955;-78
2023/03/21 12:37:12;;;;;;;;;;;;;;;;;;5056519;28;19909;-75
2023/03/21 12:39:39;;;;;;;;;;;;;;;;;;5056687;28;20373;-73
2023/03/21 12:42:05;;;;;;;;;;;;;;;;;;5056454;28;20324;-75
2023/03/21 12:44:31;;;;;;;;;;;;;;;;;;5056342;28;19935;-76
2023/03/21 12:46:57;;;;;;;;;;;;;;;;;;5056354;28;19992;-75
2023/03/21 12:49:24;;;;;;;;;;;;;;;;;;5056384;28;19909;-74
2023/03/21 12:51:50;;;;;;;;;;;;;;;;;;5056256;28;19909;-76
2023/03/21 12:54:17;;;;;;;;;;;;;;;;;;5056375;28;19944;-77
2023/03/21 12:56:43;;;;;;;;;;;;;;;;;;5056123;28;19915;-75
2023/03/21 12:59:09;;;;;;;;;;;;;;;;;;5056134;28;20277;-76
2023/03/21 13:01:36;;;;;;;;;;;;;;;;;;5055938;28;19909;-75
2023/03/21 13:04:02;;;;;;;;;;;;;;;;;;5056215;28;19919;-74
2023/03/21 13:06:29;;;;;;;;;;;;;;;;;;5055963;28;19952;-74
2023/03/21 13:08:55;;;;;;;;;;;;;;;;;;5055937;28;20373;-76
2023/03/21 13:11:21;;;;;;;;;;;;;;;;;;5055878;28;19909;-76
2023/03/21 13:13:48;;;;;;;;;;;;;;;;;;5055720;28;19913;-76
2023/03/21 13:16:14;;;;;;;;;;;;;;;;;;5056107;28;19916;-76
2023/03/21 13:18:41;;;;;;;;;;;;;;;;;;5055686;28;20004;-75
2023/03/21 13:21:07;;;;;;;;;;;;;;;;;;5055661;28;19908;-75
2023/03/21 13:23:34;;;;;;;;;;;;;;;;;;5055642;28;20020;-76
2023/03/21 13:26:01;;;;;;;;;;;;;;;;;;5055599;28;19962;-74
2023/03/21 13:28:28;;;;;;;;;;;;;;;;;;5055667;28;20320;-75
2023/03/21 13:30:55;;;;;;;;;;;;;;;;;;5055663;28;19909;-74
2023/03/21 13:33:23;;;;;;;;;;;;;;;;;;5055469;28;19933;-76
2023/03/21 13:35:50;;;;;;;;;;;;;;;;;;5055814;28;19909;-75
2023/03/21 13:38:17;;;;;;;;;;;;;;;;;;5055397;28;20057;-76
2023/03/21 13:40:44;;;;;;;;;;;;;;;;;;5055175;28;19921;-77
2023/03/21 13:43:10;;;;;;;;;;;;;;;;;;5055241;28;19963;-75
2023/03/21 13:45:37;;;;;;;;;;;;;;;;;;5055213;28;19916;-74
2023/03/21 13:48:04;;;;;;;;;;;;;;;;;;5055461;28;20385;-76
2023/03/21 13:50:31;;;;;;;;;;;;;;;;;;5053926;28;19916;-75
2023/03/21 13:52:59;;;;;;;;;;;;;;;;;;5055140;28;19908;-76
2023/03/21 13:55:25;;;;;;;;;;;;;;;;;;5055530;28;19915;-74
2023/03/21 13:57:52;;;;;;;;;;;;;;;;;;5054944;28;20301;-74
2023/03/21 14:00:19;;;;;;;;;;;;;;;;;;5054992;28;20491;-76
2023/03/21 14:02:45;;;;;;;;;;;;;;;;;;5055028;28;19945;-75
2023/03/21 14:05:12;;;;;;;;;;;;;;;;;;5055262;28;19913;-76
2023/03/21 14:07:39;;;;;;;;;;;;;;;;;;5054875;28;19912;-75
2023/03/21 14:10:05;;;;;;;;;;;;;;;;;;5055025;28;19909;-74
2023/03/21 14:12:32;;;;;;;;;;;;;;;;;;5054818;28;19955;-74
2023/03/21 14:14:59;;;;;;;;;;;;;;;;;;5054731;28;19919;-74
2023/03/21 14:17:26;;;;;;;;;;;;;;;;;;5055067;28;19909;-75
2023/03/21 14:19:53;;;;;;;;;;;;;;;;;;5054604;28;19908;-75
2023/03/21 14:22:20;;;;;;;;;;;;;;;;;;5054562;28;19915;-75
2023/03/21 14:24:46;;;;;;;;;;;;;;;;;;5054091;28;19920;-74
2023/03/21 14:27:12;;;;;;;;;;;;;;;;;;5054512;28;19913;-75
2023/03/21 14:29:38;;;;;;;;;;;;;;;;;;5053174;28;20020;-74
2023/03/21 14:32:04;;;;;;;;;;;;;;;;;;5054393;28;19963;-75
2023/03/21 14:34:30;;;;;;;;;;;;;;;;;;5054607;28;19909;-76
2023/03/21 14:36:56;;;;;;;;;;;;;;;;;;5054314;28;19909;-74
2023/03/21 14:39:23;;;;;;;;;;;;;;;;;;5054432;28;20399;-75
2023/03/21 14:41:50;;;;;;;;;;;;;;;;;;5054548;28;19975;-75
2023/03/21 14:44:21;;;;;;;;;;;;;;;;;;5054061;28;20377;-75
2023/03/21 14:46:47;;;;;;;;;;;;;;;;;;5054082;28;19909;-75
2023/03/21 14:49:14;;;;;;;;;;;;;;;;;;5054535;28;19915;-75
2023/03/21 14:51:41;;;;;;;;;;;;;;;;;;5052744;28;20004;-75
2023/03/21 14:54:07;;;;;;;;;;;;;;;;;;5052716;28;19916;-74
2023/03/21 14:56:34;;;;;;;;;;;;;;;;;;5054006;28;20396;-76
2023/03/21 14:59:00;;;;;;;;;;;;;;;;;;5053885;28;19912;-75
2023/03/21 15:01:26;;;;;;;;;;;;;;;;;;5054166;28;20262;-74
2023/03/21 15:03:53;;;;;;;;;;;;;;;;;;5053771;28;19920;-75